Time;durP1;ratioP1;P1;durP2;ratioP2;P2;SDS_P1;SDS_P2;PMS_P1;PMS_P2;Temp;Humidity;BMP_temperature;BMP_pressure;BME280_temperature;BME280_humidity;BME280_pressure;Samples;Min_cycle;Max_cycle;Signal;HPM_P1;HPM_P2
2024/03/29 00:01:25;;;;;;;71.78;58.58;;;;;;;;;;5085423;28;20194;-37
2024/03/29 00:03:55;;;;;;;85.50;59.25;;;;;;;;;;5085397;28;20017;-37
2024/03/29 00:06:22;;;;;;;74.97;57.70;;;;;;;;;;5085539;28;20247;-38
2024/03/29 00:08:48;;;;;;;81.88;57.72;;;;;;;;;;5086523;28;20275;-41
2024/03/29 00:11:15;;;;;;;87.65;57.05;;;;;;;;;;5089899;28;20020;-42
2024/03/29 00:13:41;;;;;;;100.90;58.38;;;;;;;;;;5098738;28;20019;-41
2024/03/29 00:16:08;;;;;;;80.88;57.35;;;;;;;;;;5105677;28;20020;-41
2024/03/29 00:18:35;;;;;;;85.22;57.95;;;;;;;;;;5105576;28;20024;-38
2024/03/29 00:21:01;;;;;;;69.97;56.95;;;;;;;;;;5105149;28;20197;-38
2024/03/29 00:23:28;;;;;;;76.28;57.67;;;;;;;;;;5105398;28;20016;-43
2024/03/29 00:25:58;;;;;;;71.28;57.88;;;;;;;;;;5104976;28;20064;-45
2024/03/29 00:28:24;;;;;;;63.90;57.20;;;;;;;;;;5101394;28;20047;-40
2024/03/29 00:30:51;;;;;;;80.38;57.30;;;;;;;;;;5094073;28;20052;-37
2024/03/29 00:33:17;;;;;;;67.03;56.30;;;;;;;;;;5104147;28;20028;-39
2024/03/29 00:35:44;;;;;;;70.10;57.50;;;;;;;;;;5101186;28;20024;-36
2024/03/29 00:38:11;;;;;;;63.30;56.75;;;;;;;;;;5095495;28;20047;-43
2024/03/29 00:40:38;;;;;;;64.35;57.58;;;;;;;;;;5084013;28;20052;-45
2024/03/29 00:43:04;;;;;;;135.80;61.58;;;;;;;;;;5095772;28;20297;-40
2024/03/29 00:45:31;;;;;;;86.50;59.67;;;;;;;;;;5084345;28;20079;-41
2024/03/29 00:47:58;;;;;;;70.70;57.72;;;;;;;;;;5084421;28;20027;-39
2024/03/29 00:50:24;;;;;;;75.03;59.35;;;;;;;;;;5084753;28;20028;-39
2024/03/29 00:52:51;;;;;;;70.88;58.95;;;;;;;;;;5084349;28;20091;-36
2024/03/29 00:55:17;;;;;;;69.32;61.47;;;;;;;;;;5084579;28;20027;-46
2024/03/29 00:57:44;;;;;;;94.95;63.08;;;;;;;;;;5084318;28;20054;-46
2024/03/29 01:00:11;;;;;;;70.00;59.70;;;;;;;;;;5084613;28;20087;-44
2024/03/29 01:02:37;;;;;;;65.13;58.42;;;;;;;;;;5084083;28;20078;-45
2024/03/29 01:05:04;;;;;;;70.10;60.25;;;;;;;;;;5084646;28;20027;-40
2024/03/29 01:07:31;;;;;;;66.35;59.40;;;;;;;;;;5084309;28;20063;-37
2024/03/29 01:09:57;;;;;;;66.95;59.85;;;;;;;;;;5090103;28;20020;-51
2024/03/29 01:12:24;;;;;;;69.40;59.55;;;;;;;;;;5104501;28;20039;-46
2024/03/29 01:14:50;;;;;;;79.50;59.78;;;;;;;;;;5104734;28;20030;-47
2024/03/29 01:17:17;;;;;;;67.50;57.92;;;;;;;;;;5102149;28;20024;-43
2024/03/29 01:19:44;;;;;;;79.50;60.60;;;;;;;;;;5104072;28;20048;-37
2024/03/29 01:22:11;;;;;;;74.97;59.97;;;;;;;;;;5102276;28;20024;-39
2024/03/29 01:24:37;;;;;;;66.00;58.35;;;;;;;;;;5104416;28;20055;-37
2024/03/29 01:27:06;;;;;;;70.63;60.83;;;;;;;;;;5104242;28;20077;-42
2024/03/29 01:29:33;;;;;;;66.05;59.30;;;;;;;;;;5090165;28;20097;-47
2024/03/29 01:32:00;;;;;;;67.97;58.70;;;;;;;;;;5093696;28;20218;-39
2024/03/29 01:34:26;;;;;;;69.13;61.67;;;;;;;;;;5092986;28;20048;-41
2024/03/29 01:36:53;;;;;;;65.50;58.63;;;;;;;;;;5099427;28;20133;-49
2024/03/29 01:39:22;;;;;;;71.80;58.78;;;;;;;;;;5095005;28;20021;-40
2024/03/29 01:41:49;;;;;;;65.97;58.65;;;;;;;;;;5094070;28;20043;-47
2024/03/29 01:44:16;;;;;;;71.15;58.42;;;;;;;;;;5092489;28;20051;-38
2024/03/29 01:46:46;;;;;;;69.65;60.08;;;;;;;;;;5083124;28;20031;-39
2024/03/29 01:49:13;;;;;;;65.45;58.60;;;;;;;;;;5083871;28;20016;-39
2024/03/29 01:51:40;;;;;;;65.90;58.85;;;;;;;;;;5083629;28;20021;-38
2024/03/29 01:54:09;;;;;;;67.35;59.20;;;;;;;;;;5083588;28;20200;-37
2024/03/29 01:56:38;;;;;;;67.45;58.13;;;;;;;;;;5084039;28;20086;-37
2024/03/29 01:59:05;;;;;;;67.50;59.22;;;;;;;;;;5087439;28;20134;-42
2024/03/29 02:01:31;;;;;;;70.22;59.22;;;;;;;;;;5092180;28;20055;-38
2024/03/29 02:03:58;;;;;;;67.13;59.95;;;;;;;;;;5093257;28;20017;-46
2024/03/29 02:06:25;;;;;;;65.18;58.17;;;;;;;;;;5087383;28;20258;-39
2024/03/29 02:08:55;;;;;;;66.55;58.13;;;;;;;;;;5090642;28;20020;-35
2024/03/29 02:11:22;;;;;;;64.82;58.03;;;;;;;;;;5093842;28;20216;-40
2024/03/29 02:13:50;;;;;;;67.35;60.08;;;;;;;;;;5096105;28;20038;-42
2024/03/29 02:16:16;;;;;;;69.97;58.67;;;;;;;;;;5092837;28;20127;-38
2024/03/29 02:18:43;;;;;;;73.25;58.75;;;;;;;;;;5087119;28;20028;-46
2024/03/29 02:21:10;;;;;;;68.53;61.15;;;;;;;;;;5086824;28;20028;-38
2024/03/29 02:23:38;;;;;;;68.22;61.28;;;;;;;;;;5087006;28;20021;-39
2024/03/29 02:26:05;;;;;;;76.82;67.18;;;;;;;;;;5087148;28;20074;-39
2024/03/29 02:28:32;;;;;;;72.57;61.00;;;;;;;;;;5087045;28;20021;-37
2024/03/29 02:30:58;;;;;;;72.30;62.00;;;;;;;;;;5085550;28;20083;-39
2024/03/29 02:33:25;;;;;;;68.68;60.95;;;;;;;;;;5087181;28;20036;-41
2024/03/29 02:35:51;;;;;;;67.32;60.30;;;;;;;;;;5087012;28;20236;-39
2024/03/29 02:38:18;;;;;;;65.70;58.80;;;;;;;;;;5086841;28;20026;-36
2024/03/29 02:40:45;;;;;;;65.75;59.20;;;;;;;;;;5086939;28;20047;-45
2024/03/29 02:43:11;;;;;;;68.82;59.67;;;;;;;;;;5094449;28;20272;-36
2024/03/29 02:45:38;;;;;;;84.20;61.47;;;;;;;;;;5099644;28;20126;-48
2024/03/29 02:48:04;;;;;;;82.13;60.25;;;;;;;;;;5094631;28;20035;-50
2024/03/29 02:50:31;;;;;;;78.15;59.55;;;;;;;;;;5087318;28;20051;-56
2024/03/29 02:52:58;;;;;;;81.88;60.42;;;;;;;;;;5089530;28;20051;-52
2024/03/29 02:55:24;;;;;;;85.68;60.65;;;;;;;;;;5095789;28;20035;-50
2024/03/29 02:57:51;;;;;;;71.57;61.13;;;;;;;;;;5090195;28;20030;-47
2024/03/29 03:00:17;;;;;;;73.18;59.28;;;;;;;;;;5094522;28;20078;-50
2024/03/29 03:02:44;;;;;;;67.50;60.13;;;;;;;;;;5086098;28;20013;-48
2024/03/29 03:05:11;;;;;;;66.75;59.75;;;;;;;;;;5086587;28;20319;-51
2024/03/29 03:13:07;;;;;;;67.63;60.65;;;;;;;;;;5106389;28;20047;-48
2024/03/29 03:15:34;;;;;;;69.50;62.20;;;;;;;;;;5106698;28;20043;-46
2024/03/29 03:18:01;;;;;;;68.70;61.35;;;;;;;;;;5098763;28;20027;-49
2024/03/29 03:20:31;;;;;;;69.03;61.75;;;;;;;;;;5088881;28;20278;-46
2024/03/29 03:22:58;;;;;;;69.45;61.33;;;;;;;;;;5086184;28;20318;-48
2024/03/29 03:25:28;;;;;;;68.63;61.13;;;;;;;;;;5086389;28;20032;-45
2024/03/29 03:27:55;;;;;;;67.80;60.65;;;;;;;;;;5084618;28;20043;-45
2024/03/29 03:30:22;;;;;;;68.75;62.05;;;;;;;;;;5090789;28;20236;-48
2024/03/29 03:32:49;;;;;;;68.82;61.97;;;;;;;;;;5094590;28;20027;-50
2024/03/29 03:35:15;;;;;;;66.03;59.60;;;;;;;;;;5085903;28;20091;-47
2024/03/29 03:37:42;;;;;;;67.00;60.25;;;;;;;;;;5088664;28;20084;-45
2024/03/29 03:40:08;;;;;;;67.13;60.17;;;;;;;;;;5094232;28;20328;-51
2024/03/29 03:42:35;;;;;;;66.22;59.75;;;;;;;;;;5085338;28;20079;-46
2024/03/29 03:45:03;;;;;;;67.80;61.03;;;;;;;;;;5086012;28;20020;-52
2024/03/29 03:47:30;;;;;;;69.45;62.40;;;;;;;;;;5085525;28;20146;-47
2024/03/29 03:49:56;;;;;;;76.30;62.33;;;;;;;;;;5090285;28;20092;-48
2024/03/29 03:52:23;;;;;;;73.07;60.60;;;;;;;;;;5104035;28;20020;-49
2024/03/29 03:54:49;;;;;;;82.25;62.00;;;;;;;;;;5105065;28;20032;-52
2024/03/29 03:57:16;;;;;;;83.20;61.53;;;;;;;;;;5096845;28;20020;-51
2024/03/29 03:59:43;;;;;;;68.82;61.13;;;;;;;;;;5096758;28;20065;-47
2024/03/29 04:02:10;;;;;;;67.97;60.78;;;;;;;;;;5093461;28;20020;-53
2024/03/29 04:04:36;;;;;;;69.30;61.65;;;;;;;;;;5095718;28;20050;-46
2024/03/29 04:07:03;;;;;;;67.07;60.33;;;;;;;;;;5093737;28;20016;-48
2024/03/29 04:09:29;;;;;;;67.47;60.40;;;;;;;;;;5102163;28;20024;-48
2024/03/29 04:11:56;;;;;;;68.60;60.90;;;;;;;;;;5094761;28;20024;-44
2024/03/29 04:14:23;;;;;;;68.72;61.65;;;;;;;;;;5095852;28;20069;-48
2024/03/29 04:16:49;;;;;;;67.43;60.75;;;;;;;;;;5087550;28;20017;-44
2024/03/29 04:19:16;;;;;;;67.53;60.42;;;;;;;;;;5084986;28;20036;-44
2024/03/29 04:21:42;;;;;;;68.03;60.92;;;;;;;;;;5083802;28;20021;-48
2024/03/29 04:24:10;;;;;;;68.07;61.13;;;;;;;;;;5084749;28;20025;-45
2024/03/29 04:26:39;;;;;;;67.10;59.63;;;;;;;;;;5084493;28;20024;-55
2024/03/29 04:29:06;;;;;;;69.47;62.63;;;;;;;;;;5095409;28;20055;-46
2024/03/29 04:31:32;;;;;;;67.35;60.47;;;;;;;;;;5098591;28;20078;-54
2024/03/29 04:34:00;;;;;;;64.93;58.53;;;;;;;;;;5084698;28;20028;-46
2024/03/29 04:36:26;;;;;;;66.80;60.47;;;;;;;;;;5084295;28;20039;-42
2024/03/29 04:38:53;;;;;;;66.70;60.38;;;;;;;;;;5093976;28;20028;-44
2024/03/29 04:41:20;;;;;;;66.85;60.33;;;;;;;;;;5088694;28;20194;-49
2024/03/29 04:43:46;;;;;;;66.40;59.85;;;;;;;;;;5084340;28;20029;-44
2024/03/29 04:46:14;;;;;;;67.07;60.53;;;;;;;;;;5084492;28;20020;-46
2024/03/29 04:48:43;;;;;;;66.65;59.83;;;;;;;;;;5084214;28;20069;-52
2024/03/29 04:51:10;;;;;;;65.80;59.30;;;;;;;;;;5084122;28;20043;-47
2024/03/29 04:53:38;;;;;;;67.07;60.70;;;;;;;;;;5084392;28;20271;-43
2024/03/29 04:56:05;;;;;;;66.45;60.10;;;;;;;;;;5084029;28;20051;-46
2024/03/29 04:58:32;;;;;;;66.22;59.88;;;;;;;;;;5083779;28;20305;-45
2024/03/29 05:00:59;;;;;;;66.45;59.55;;;;;;;;;;5094735;28;20312;-45
2024/03/29 05:03:25;;;;;;;66.88;60.47;;;;;;;;;;5083885;28;20324;-56
2024/03/29 05:05:52;;;;;;;65.78;59.58;;;;;;;;;;5083711;28;20137;-51
2024/03/29 05:08:19;;;;;;;70.80;59.90;;;;;;;;;;5089770;28;20015;-43
2024/03/29 05:10:46;;;;;;;67.18;60.17;;;;;;;;;;5093354;28;20032;-45
2024/03/29 05:13:13;;;;;;;67.25;60.35;;;;;;;;;;5083683;28;20036;-47
2024/03/29 05:15:40;;;;;;;68.72;61.83;;;;;;;;;;5084043;28;20035;-55
2024/03/29 05:18:06;;;;;;;67.28;60.70;;;;;;;;;;5092609;28;20046;-44
2024/03/29 05:20:33;;;;;;;63.35;57.40;;;;;;;;;;5104338;28;20024;-46
2024/03/29 05:23:00;;;;;;;65.75;59.47;;;;;;;;;;5104205;28;20023;-47
2024/03/29 05:25:26;;;;;;;65.28;59.30;;;;;;;;;;5104515;28;20027;-45
2024/03/29 05:27:53;;;;;;;64.38;58.17;;;;;;;;;;5097611;28;20016;-49
2024/03/29 05:30:20;;;;;;;65.22;58.95;;;;;;;;;;5084077;28;20052;-45
2024/03/29 05:32:46;;;;;;;66.30;59.83;;;;;;;;;;5091805;28;20049;-47
2024/03/29 05:35:16;;;;;;;64.93;58.70;;;;;;;;;;5104485;28;20035;-45
2024/03/29 05:37:46;;;;;;;65.80;59.10;;;;;;;;;;5103949;28;20316;-50
2024/03/29 05:40:13;;;;;;;64.40;58.15;;;;;;;;;;5104152;28;20040;-45
2024/03/29 05:42:39;;;;;;;64.43;58.35;;;;;;;;;;5104118;28;20012;-52
2024/03/29 05:45:08;;;;;;;65.07;58.95;;;;;;;;;;5104324;28;20024;-47
2024/03/29 05:47:34;;;;;;;65.20;58.92;;;;;;;;;;5103810;28;20012;-44
2024/03/29 05:50:01;;;;;;;63.20;57.35;;;;;;;;;;5104086;28;20027;-49
2024/03/29 05:52:27;;;;;;;64.47;58.28;;;;;;;;;;5103901;28;20024;-43
2024/03/29 05:54:54;;;;;;;65.88;59.55;;;;;;;;;;5104134;28;20036;-44
2024/03/29 05:57:24;;;;;;;63.75;57.67;;;;;;;;;;5103664;28;20316;-44
2024/03/29 05:59:52;;;;;;;65.63;59.28;;;;;;;;;;5103945;28;20062;-49
2024/03/29 06:02:18;;;;;;;65.90;59.47;;;;;;;;;;5103611;28;20036;-54
2024/03/29 06:04:47;;;;;;;63.97;57.63;;;;;;;;;;5103864;28;20032;-47
2024/03/29 06:07:14;;;;;;;64.50;58.08;;;;;;;;;;5103622;28;20021;-47
2024/03/29 06:09:40;;;;;;;65.07;59.20;;;;;;;;;;5103673;28;20051;-46
2024/03/29 06:12:11;;;;;;;65.25;59.03;;;;;;;;;;5103577;28;20020;-44
2024/03/29 06:17:23;;;;;;;66.65;60.22;;;;;;;;;;5103416;28;20051;-46
2024/03/29 06:19:50;;;;;;;64.35;58.22;;;;;;;;;;5103672;28;20059;-52
2024/03/29 06:22:17;;;;;;;65.68;59.13;;;;;;;;;;5103436;28;20012;-46
2024/03/29 06:24:44;;;;;;;64.97;58.88;;;;;;;;;;5103566;28;20031;-48
2024/03/29 06:27:11;;;;;;;65.95;59.65;;;;;;;;;;5103520;28;20016;-52
2024/03/29 06:29:38;;;;;;;65.53;59.33;;;;;;;;;;5103258;28;20052;-44
2024/03/29 06:32:04;;;;;;;64.85;58.55;;;;;;;;;;5103549;28;20043;-45
2024/03/29 06:34:31;;;;;;;65.43;59.05;;;;;;;;;;5103720;28;20059;-51
2024/03/29 06:36:58;;;;;;;64.15;58.17;;;;;;;;;;5103299;28;20057;-49
2024/03/29 06:39:25;;;;;;;64.40;58.38;;;;;;;;;;5103358;28;20028;-50
2024/03/29 06:41:53;;;;;;;64.25;58.30;;;;;;;;;;5103315;28;20024;-51
2024/03/29 06:44:19;;;;;;;65.50;59.40;;;;;;;;;;5105306;28;20017;-48
2024/03/29 06:46:48;;;;;;;67.30;60.65;;;;;;;;;;5106836;28;20075;-50
2024/03/29 06:49:16;;;;;;;66.32;59.90;;;;;;;;;;5107178;28;20046;-45
2024/03/29 06:51:43;;;;;;;65.95;59.47;;;;;;;;;;5106761;28;20023;-43
2024/03/29 06:54:09;;;;;;;64.50;58.35;;;;;;;;;;5106635;28;20338;-44
2024/03/29 06:56:36;;;;;;;65.55;59.20;;;;;;;;;;5106873;28;20016;-44
2024/03/29 06:59:03;;;;;;;64.63;58.42;;;;;;;;;;5107037;28;20083;-46
2024/03/29 07:01:29;;;;;;;64.40;58.28;;;;;;;;;;5106507;28;20080;-50
2024/03/29 07:03:56;;;;;;;64.15;58.35;;;;;;;;;;5106835;28;20028;-48
2024/03/29 07:06:23;;;;;;;64.57;58.40;;;;;;;;;;5106786;28;20216;-51
2024/03/29 07:08:49;;;;;;;65.35;58.88;;;;;;;;;;5106489;28;20068;-44
2024/03/29 07:11:16;;;;;;;65.10;58.75;;;;;;;;;;5106597;28;20019;-49
2024/03/29 07:13:42;;;;;;;65.72;59.33;;;;;;;;;;5106711;28;20043;-46
2024/03/29 07:16:09;;;;;;;64.35;58.35;;;;;;;;;;5106376;28;20026;-45
2024/03/29 07:18:36;;;;;;;64.32;58.30;;;;;;;;;;5106560;28;20086;-43
2024/03/29 07:21:02;;;;;;;64.95;58.80;;;;;;;;;;5106039;28;20115;-53
2024/03/29 07:23:29;;;;;;;63.88;57.78;;;;;;;;;;5106258;28;20204;-52
2024/03/29 07:26:03;;;;;;;64.68;58.55;;;;;;;;;;5106107;28;20203;-54
2024/03/29 07:28:29;;;;;;;63.25;57.05;;;;;;;;;;5106027;28;20079;-56
2024/03/29 07:30:56;;;;;;;65.78;59.47;;;;;;;;;;5105815;28;20040;-48
2024/03/29 07:33:26;;;;;;;63.45;57.47;;;;;;;;;;5105955;28;20024;-44
2024/03/29 07:35:53;;;;;;;64.15;58.17;;;;;;;;;;5105996;28;20044;-45
2024/03/29 07:38:20;;;;;;;63.60;57.70;;;;;;;;;;5105760;28;20193;-45
2024/03/29 07:40:47;;;;;;;64.03;57.90;;;;;;;;;;5105944;28;20049;-49
2024/03/29 07:43:14;;;;;;;64.18;57.97;;;;;;;;;;5105849;28;20027;-47
2024/03/29 07:45:44;;;;;;;62.80;56.95;;;;;;;;;;5105998;28;20307;-45
2024/03/29 07:48:14;;;;;;;65.25;59.17;;;;;;;;;;5105687;28;20024;-47
2024/03/29 07:50:44;;;;;;;65.85;59.55;;;;;;;;;;5105799;28;20061;-48
2024/03/29 07:53:11;;;;;;;63.28;57.50;;;;;;;;;;5105859;28;20047;-51
2024/03/29 07:55:41;;;;;;;63.20;57.47;;;;;;;;;;5105641;28;20024;-53
2024/03/29 07:58:09;;;;;;;65.50;59.03;;;;;;;;;;5105520;28;20044;-49
2024/03/29 08:00:41;;;;;;;66.38;59.95;;;;;;;;;;5105202;28;20038;-48
2024/03/29 08:03:07;;;;;;;63.90;58.00;;;;;;;;;;5105333;28;20354;-49
2024/03/29 08:05:34;;;;;;;64.47;58.33;;;;;;;;;;5106032;28;20016;-47
2024/03/29 08:08:01;;;;;;;65.60;59.60;;;;;;;;;;5105518;28;20016;-49
2024/03/29 08:10:27;;;;;;;64.97;58.97;;;;;;;;;;5105789;28;20212;-46
2024/03/29 08:12:54;;;;;;;66.90;60.38;;;;;;;;;;5105284;28;20252;-44
2024/03/29 08:15:20;;;;;;;64.75;58.65;;;;;;;;;;5105517;28;20212;-51
2024/03/29 08:17:47;;;;;;;65.40;59.05;;;;;;;;;;5105112;28;20027;-46
2024/03/29 08:20:14;;;;;;;65.28;59.20;;;;;;;;;;5105361;28;20120;-46
2024/03/29 08:22:40;;;;;;;65.75;59.40;;;;;;;;;;5104946;28;20020;-48
2024/03/29 08:25:08;;;;;;;66.55;60.35;;;;;;;;;;5105061;28;20024;-46
2024/03/29 08:27:35;;;;;;;66.65;60.45;;;;;;;;;;5105059;28;20316;-46
2024/03/29 08:30:01;;;;;;;65.60;59.55;;;;;;;;;;5104682;28;20056;-45
2024/03/29 08:32:28;;;;;;;65.93;59.63;;;;;;;;;;5104934;28;20212;-43
2024/03/29 08:34:54;;;;;;;65.75;59.58;;;;;;;;;;5105551;28;20374;-44
2024/03/29 08:37:21;;;;;;;65.50;59.33;;;;;;;;;;5104657;28;20364;-41
2024/03/29 08:39:48;;;;;;;65.40;59.42;;;;;;;;;;5105081;28;20032;-42
2024/03/29 08:42:16;;;;;;;67.28;60.75;;;;;;;;;;5104725;28;20019;-44
2024/03/29 08:44:43;;;;;;;64.53;58.33;;;;;;;;;;5104804;28;20024;-47
2024/03/29 08:47:10;;;;;;;67.80;61.28;;;;;;;;;;5104760;28;20117;-44
2024/03/29 08:49:37;;;;;;;66.75;60.65;;;;;;;;;;5104827;28;20211;-50
2024/03/29 08:52:05;;;;;;;66.53;60.38;;;;;;;;;;5104431;28;20087;-45
2024/03/29 08:54:32;;;;;;;66.30;59.92;;;;;;;;;;5105079;28;20073;-47
2024/03/29 08:56:59;;;;;;;66.63;59.95;;;;;;;;;;5104418;28;20316;-52
2024/03/29 08:59:25;;;;;;;65.80;59.80;;;;;;;;;;5104421;28;20316;-52
2024/03/29 09:01:52;;;;;;;68.05;61.72;;;;;;;;;;5104349;28;20022;-49
2024/03/29 09:04:20;;;;;;;68.65;61.88;;;;;;;;;;5104475;28;20291;-48
2024/03/29 09:06:46;;;;;;;69.03;62.15;;;;;;;;;;5104026;28;20028;-52
2024/03/29 09:09:13;;;;;;;69.15;62.15;;;;;;;;;;5104628;28;20024;-59
2024/03/29 09:11:40;;;;;;;68.60;62.35;;;;;;;;;;5104869;28;20012;-54
2024/03/29 09:14:09;;;;;;;67.88;61.38;;;;;;;;;;5104237;28;20045;-57
2024/03/29 09:16:36;;;;;;;67.53;61.05;;;;;;;;;;5104140;28;20027;-54
2024/03/29 09:19:04;;;;;;;67.05;60.83;;;;;;;;;;5104394;28;20028;-44
2024/03/29 09:21:31;;;;;;;67.80;60.88;;;;;;;;;;5103779;28;20028;-44
2024/03/29 09:23:57;;;;;;;66.55;60.40;;;;;;;;;;5104170;28;20024;-51
2024/03/29 09:26:24;;;;;;;66.38;60.10;;;;;;;;;;5104155;28;20024;-45
2024/03/29 09:28:51;;;;;;;65.85;59.47;;;;;;;;;;5103769;28;20028;-47
2024/03/29 09:31:17;;;;;;;67.20;60.90;;;;;;;;;;5104111;28;20337;-44
2024/03/29 09:33:47;;;;;;;66.32;60.10;;;;;;;;;;5104281;28;20307;-45
2024/03/29 09:36:13;;;;;;;66.78;60.60;;;;;;;;;;5103807;28;20024;-45
2024/03/29 09:38:40;;;;;;;67.65;60.92;;;;;;;;;;5103843;28;20077;-60
2024/03/29 09:41:09;;;;;;;68.85;62.15;;;;;;;;;;5103806;28;20216;-51
2024/03/29 09:43:36;;;;;;;66.47;60.13;;;;;;;;;;5104018;28;20047;-49
2024/03/29 09:46:03;;;;;;;66.97;60.58;;;;;;;;;;5103836;28;20245;-48
2024/03/29 09:48:36;;;;;;;66.80;60.30;;;;;;;;;;5104011;28;20020;-55
2024/03/29 09:51:04;;;;;;;65.85;59.38;;;;;;;;;;5103649;28;20024;-60
2024/03/29 09:53:31;;;;;;;65.90;59.60;;;;;;;;;;5103756;28;20036;-56
2024/03/29 09:55:58;;;;;;;65.38;58.90;;;;;;;;;;5103898;28;20216;-51
2024/03/29 09:58:24;;;;;;;63.20;56.75;;;;;;;;;;5104015;28;20019;-51
2024/03/29 10:00:51;;;;;;;64.57;58.45;;;;;;;;;;5103731;28;20023;-56
2024/03/29 10:03:21;;;;;;;64.78;58.78;;;;;;;;;;5103604;28;20027;-51
2024/03/29 10:05:48;;;;;;;63.55;57.47;;;;;;;;;;5103463;28;20317;-55
2024/03/29 10:08:15;;;;;;;63.67;57.60;;;;;;;;;;5103740;28;20331;-52
2024/03/29 10:10:42;;;;;;;64.57;58.38;;;;;;;;;;5103766;28;20028;-58
2024/03/29 10:13:08;;;;;;;63.47;57.22;;;;;;;;;;5103731;28;20027;-54
2024/03/29 10:15:37;;;;;;;64.00;58.00;;;;;;;;;;5103796;28;20024;-52
2024/03/29 10:18:04;;;;;;;64.32;57.90;;;;;;;;;;5103576;28;20262;-47
2024/03/29 10:20:30;;;;;;;62.95;56.97;;;;;;;;;;5107466;28;20028;-51
2024/03/29 10:23:02;;;;;;;63.20;57.42;;;;;;;;;;5107313;28;20083;-51
2024/03/29 10:25:33;;;;;;;64.10;57.63;;;;;;;;;;5107856;28;20035;-44
2024/03/29 10:28:01;;;;;;;62.83;56.92;;;;;;;;;;5107219;28;20016;-49
2024/03/29 10:30:28;;;;;;;64.20;58.10;;;;;;;;;;5107139;28;20051;-49
2024/03/29 10:32:58;;;;;;;62.15;56.35;;;;;;;;;;5107320;28;20330;-47
2024/03/29 10:35:28;;;;;;;64.65;58.10;;;;;;;;;;5107585;28;20036;-55
2024/03/29 10:37:54;;;;;;;65.13;58.42;;;;;;;;;;5107164;28;20083;-58
2024/03/29 10:40:24;;;;;;;64.28;58.20;;;;;;;;;;5107609;28;20338;-52
2024/03/29 10:42:51;;;;;;;63.78;57.17;;;;;;;;;;5106957;28;20024;-52
2024/03/29 10:45:17;;;;;;;63.60;57.22;;;;;;;;;;5107747;28;20352;-46
2024/03/29 10:47:46;;;;;;;65.35;58.80;;;;;;;;;;5106837;28;20020;-47
2024/03/29 10:50:15;;;;;;;63.15;56.80;;;;;;;;;;5107227;28;20039;-51
2024/03/29 10:52:42;;;;;;;63.80;57.03;;;;;;;;;;5106886;28;20016;-54
2024/03/29 10:55:10;;;;;;;64.40;57.92;;;;;;;;;;5106683;28;20071;-51
2024/03/29 10:57:40;;;;;;;63.42;57.05;;;;;;;;;;5106947;28;20054;-50
2024/03/29 11:00:08;;;;;;;65.38;58.30;;;;;;;;;;5107057;28;20031;-49
2024/03/29 11:02:40;;;;;;;69.38;57.33;;;;;;;;;;5106059;28;20327;-51
2024/03/29 11:05:10;;;;;;;64.57;57.08;;;;;;;;;;5107006;28;20070;-45
2024/03/29 11:07:41;;;;;;;65.68;58.90;;;;;;;;;;5106546;28;20012;-46
2024/03/29 11:10:08;;;;;;;70.07;59.72;;;;;;;;;;5106904;28;20089;-46
2024/03/29 11:12:39;;;;;;;66.55;59.30;;;;;;;;;;5106539;28;20028;-46
2024/03/29 11:15:08;;;;;;;68.60;59.28;;;;;;;;;;5106812;28;20237;-46
2024/03/29 11:17:35;;;;;;;67.70;58.70;;;;;;;;;;5106486;28;20069;-45
2024/03/29 11:20:04;;;;;;;66.75;58.35;;;;;;;;;;5099604;28;20059;-45
2024/03/29 11:22:31;;;;;;;77.28;61.08;;;;;;;;;;5100376;28;20060;-50
2024/03/29 11:25:00;;;;;;;73.85;58.72;;;;;;;;;;5106734;28;20212;-53
2024/03/29 11:27:27;;;;;;;72.15;60.15;;;;;;;;;;5106161;28;20016;-45
2024/03/29 11:29:53;;;;;;;74.65;59.67;;;;;;;;;;5105541;28;20056;-45
2024/03/29 11:32:37;;;;;;;72.55;58.90;;;;;;;;;;5106342;28;20046;-45
2024/03/29 11:35:04;;;;;;;74.38;60.22;;;;;;;;;;5106390;28;20055;-43
2024/03/29 11:37:32;;;;;;;71.53;61.75;;;;;;;;;;5106226;28;20035;-49
2024/03/29 11:40:02;;;;;;;65.43;58.50;;;;;;;;;;5105875;28;20032;-50
2024/03/29 11:42:57;;;;;;;68.18;59.58;;;;;;;;;;5105837;28;20246;-54
2024/03/29 11:45:30;;;;;;;67.80;60.90;;;;;;;;;;5092978;28;20028;-44
2024/03/29 11:48:00;;;;;;;68.88;61.92;;;;;;;;;;5105676;28;20075;-44
2024/03/29 11:50:27;;;;;;;65.97;59.50;;;;;;;;;;5106257;28;20027;-44
2024/03/29 11:52:53;;;;;;;65.30;58.88;;;;;;;;;;5105679;28;20023;-43
2024/03/29 11:55:22;;;;;;;64.68;58.00;;;;;;;;;;5105961;28;20087;-47
2024/03/29 11:57:48;;;;;;;66.22;59.05;;;;;;;;;;5105498;28;20024;-49
2024/03/29 12:00:16;;;;;;;64.68;57.83;;;;;;;;;;5105857;28;20027;-49
2024/03/29 12:02:42;;;;;;;66.32;58.22;;;;;;;;;;5105412;28;20019;-43
2024/03/29 12:05:10;;;;;;;64.28;57.70;;;;;;;;;;5105930;28;20016;-51
2024/03/29 12:07:36;;;;;;;65.97;59.33;;;;;;;;;;5105502;28;20020;-50
2024/03/29 12:10:03;;;;;;;63.90;57.47;;;;;;;;;;5105611;28;20028;-47
2024/03/29 12:12:35;;;;;;;62.80;56.60;;;;;;;;;;5105327;28;20193;-50
2024/03/29 12:15:02;;;;;;;63.08;56.95;;;;;;;;;;5105645;28;20024;-44
2024/03/29 12:17:28;;;;;;;63.03;56.42;;;;;;;;;;5105127;28;20020;-47
2024/03/29 12:20:03;;;;;;;62.30;55.85;;;;;;;;;;5105360;28;20208;-44
2024/03/29 12:22:30;;;;;;;60.65;54.13;;;;;;;;;;5104853;28;20024;-45
2024/03/29 12:24:57;;;;;;;60.65;54.67;;;;;;;;;;5105006;28;20031;-48
2024/03/29 12:27:24;;;;;;;58.72;52.75;;;;;;;;;;5105116;28;20024;-45
2024/03/29 12:29:51;;;;;;;57.75;51.88;;;;;;;;;;5104771;28;20370;-44
2024/03/29 12:32:21;;;;;;;55.30;49.90;;;;;;;;;;5099476;28;20084;-52
2024/03/29 12:34:47;;;;;;;58.95;52.92;;;;;;;;;;5093718;28;20091;-44
2024/03/29 12:37:14;;;;;;;54.90;49.22;;;;;;;;;;5098787;28;20020;-45
2024/03/29 12:39:42;;;;;;;55.45;50.05;;;;;;;;;;5085107;28;20028;-50
2024/03/29 12:42:08;;;;;;;54.65;49.25;;;;;;;;;;5083753;28;20012;-45
2024/03/29 12:44:36;;;;;;;56.00;50.42;;;;;;;;;;5084537;28;20217;-51
2024/03/29 12:47:02;;;;;;;55.28;49.45;;;;;;;;;;5084506;28;20071;-49
2024/03/29 12:49:29;;;;;;;61.40;49.35;;;;;;;;;;5084472;28;20070;-48
2024/03/29 12:51:56;;;;;;;54.53;48.72;;;;;;;;;;5089819;28;20012;-46
2024/03/29 12:54:23;;;;;;;54.35;48.70;;;;;;;;;;5104631;28;20028;-54
2024/03/29 12:56:50;;;;;;;51.92;46.63;;;;;;;;;;5104449;28;20012;-56
2024/03/29 12:59:16;;;;;;;52.85;47.53;;;;;;;;;;5104691;28;20032;-49
2024/03/29 13:01:45;;;;;;;100.07;90.53;;;;;;;;;;5094905;28;20032;-50
2024/03/29 13:04:12;;;;;;;61.80;55.35;;;;;;;;;;5090169;28;20203;-49
2024/03/29 13:06:38;;;;;;;59.20;53.65;;;;;;;;;;5104307;28;20023;-48
2024/03/29 13:09:05;;;;;;;61.58;55.15;;;;;;;;;;5102245;28;20073;-45
2024/03/29 13:11:32;;;;;;;59.08;52.83;;;;;;;;;;5099655;28;20092;-44
2024/03/29 13:13:58;;;;;;;59.15;52.88;;;;;;;;;;5101025;28;20051;-46
2024/03/29 13:16:25;;;;;;;58.45;52.22;;;;;;;;;;5096585;28;20032;-43
2024/03/29 13:18:51;;;;;;;56.42;50.50;;;;;;;;;;5100845;28;20039;-48
2024/03/29 13:21:18;;;;;;;55.17;49.40;;;;;;;;;;5083086;28;20071;-43
2024/03/29 13:23:44;;;;;;;53.03;48.03;;;;;;;;;;5083746;28;20092;-47
2024/03/29 13:26:11;;;;;;;52.90;47.58;;;;;;;;;;5092827;28;20061;-47
2024/03/29 13:28:37;;;;;;;54.40;49.13;;;;;;;;;;5104025;28;20028;-45
2024/03/29 13:31:04;;;;;;;53.17;47.92;;;;;;;;;;5095569;28;20045;-50
2024/03/29 13:33:31;;;;;;;50.85;46.13;;;;;;;;;;5098236;28;20033;-49
2024/03/29 13:35:58;;;;;;;52.78;47.33;;;;;;;;;;5102470;28;20020;-47
2024/03/29 13:38:26;;;;;;;52.40;46.95;;;;;;;;;;5103759;28;20020;-45
2024/03/29 13:40:53;;;;;;;53.58;47.63;;;;;;;;;;5095172;28;20023;-48
2024/03/29 13:43:22;;;;;;;50.90;45.75;;;;;;;;;;5093559;28;20034;-50
2024/03/29 13:45:50;;;;;;;51.72;46.28;;;;;;;;;;5103527;28;20020;-52
2024/03/29 13:48:17;;;;;;;53.60;47.78;;;;;;;;;;5091131;28;20317;-46
2024/03/29 13:50:44;;;;;;;51.28;45.92;;;;;;;;;;5097516;28;20028;-49
2024/03/29 13:53:11;;;;;;;52.85;47.17;;;;;;;;;;5086589;28;20016;-42
2024/03/29 13:55:37;;;;;;;52.22;46.58;;;;;;;;;;5098143;28;20024;-50
2024/03/29 13:58:04;;;;;;;50.50;45.03;;;;;;;;;;5096197;28;20032;-48
2024/03/29 14:00:32;;;;;;;51.05;45.63;;;;;;;;;;5102265;28;20034;-49
2024/03/29 14:02:58;;;;;;;51.28;45.72;;;;;;;;;;5098181;28;20028;-46
2024/03/29 14:05:25;;;;;;;50.90;45.45;;;;;;;;;;5091099;28;20296;-49
2024/03/29 14:07:52;;;;;;;48.92;43.80;;;;;;;;;;5097831;28;20019;-54
2024/03/29 14:10:19;;;;;;;48.60;43.72;;;;;;;;;;5093659;28;20084;-45
2024/03/29 14:12:47;;;;;;;52.92;44.65;;;;;;;;;;5105655;28;20091;-48
2024/03/29 14:15:13;;;;;;;53.10;44.75;;;;;;;;;;5106011;28;20263;-50
2024/03/29 14:17:40;;;;;;;48.70;43.70;;;;;;;;;;5103096;28;20133;-54
2024/03/29 14:20:07;;;;;;;48.00;43.08;;;;;;;;;;5107108;28;20055;-58
2024/03/29 14:22:35;;;;;;;48.53;43.60;;;;;;;;;;5104318;28;20020;-52
2024/03/29 14:25:03;;;;;;;48.85;43.90;;;;;;;;;;5105551;28;20083;-52